aviador You're here:

LYPG Decoded Metar

PODGORICA in SERBIA
Report Time2018-02-21 04:30:00
UTC Time2018-02-21 05:05:28
Flight Rules vfr VFR
Wind350° at 07 kt
W.Decomp.*RWY 36: 6.8 kt HW 1.6 kt LCW
W.Rank350° ranks 3
Current wind is above 350° avg. (5.9)
Visibility9999 m
Phenomena:Rain
Clouds:Scattered 017 Hf
Broken 030 Hf
Overcast 070 Hf
Expected CloudBase > 400 ft AGL from Temp-Dew spread
Ceiling3,000 ft
Temp06°C (ISA -9)
Dew Point05°C (93% RH)
AAT2.3°C
QNH1005 hPa
Density Alt-518 ft
Elevation141 ft
Report Wrong Elevation
Raw Report
LYPG 210430Z 35007KT 9999 RA SCT017 BKN030 OVC070 06/05 Q1005
NOSIG=

Extra information for LYPG:More info

Metar Taf Metar & Taf Last 4 Metars F.Rules Stats Wind Profile Meteogram Temp Stats Airport Information Weather charts Add Link Nearby VenuesMetar ALERT Operation Metar Decoded Social comments